Main page
METAR-TAF:

METAR-TAF

Airports :

Pula Airport

Pula, Croatia

latitude: 44-54N, longitude: 013-55E, elevation: 63 m

Current weather observation

The report was made 11 minutes ago, at 01:30 UTC
Wind 9 kt from the Northeast
Temperature 20°C
Humidity 83%
Pressure 1013 hPa
Visibility 10 km or more
Few clouds at a height of 2000 ft

METAR: LDPL 150130Z 04009KT 9999 FEW020 20/17 Q1013

Time: 03:41 (01:41 UTC)

Forecast

The report was made 2 hours and 16 minutes ago, at 23:25 UTC
Forecast valid from 15 at 00 UTC to 16 at 00 UTC
Wind 10 kt from the East/Northeast
Visibility 10 km or more
no clouds below 1500 m and no cumulonimbus

TAF: LDPL 142325Z 1500/1600 06010KT CAVOK TX27/1513Z TN18/1503Z

Weather observations and forecasts of more than 4000 airports (METAR and TAF reports).

The available stations are represented by yellow and red dots on the map.

Hover mouse over dot to see the name of the station.

Then click to see weather observations and forecasts.

To change the map : click on the green buttons with a black cross to zoom in, on the green button with a dash to zoom out, or on the green arrows for adjacent maps.


METAR-TAF: